createdAt,value
2019-03-21T00:02:24.131Z,102826.66
2019-03-21T00:05:34.399Z,102826.32
2019-03-21T00:08:51.778Z,102816.84
2019-03-21T00:12:06.981Z,102824.05
2019-03-21T00:15:30.141Z,102820.36
2019-03-21T00:18:37.834Z,102816.50
2019-03-21T00:21:45.840Z,102820.23
2019-03-21T00:24:53.782Z,102816.93
2019-03-21T00:28:01.537Z,102814.78
2019-03-21T00:31:18.516Z,102810.95
2019-03-21T00:34:35.391Z,102820.56
2019-03-21T00:37:43.501Z,102821.55
2019-03-21T00:40:51.312Z,102823.17
2019-03-21T00:44:17.889Z,102824.00
2019-03-21T00:47:18.026Z,102835.30
2019-03-21T00:50:35.421Z,102827.08
2019-03-21T00:53:43.437Z,102838.56
2019-03-21T00:56:51.253Z,102831.79
2019-03-21T01:00:11.314Z,102828.72
2019-03-21T01:03:18.990Z,102828.79
2019-03-21T01:06:26.903Z,102828.38
2019-03-21T01:09:44.124Z,102823.59
2019-03-21T01:12:51.990Z,102812.02
2019-03-21T01:15:59.669Z,102807.81
2019-03-21T01:19:16.911Z,102794.59
2019-03-21T01:22:24.653Z,102801.45
2019-03-21T01:25:35.795Z,102796.42
2019-03-21T01:28:52.934Z,102793.64
2019-03-21T01:32:00.789Z,102798.91
2019-03-21T01:35:07.756Z,102800.58
2019-03-21T01:38:15.409Z,102796.27
2019-03-21T01:41:23.279Z,102798.42
2019-03-21T01:44:40.519Z,102796.32
2019-03-21T01:47:40.809Z,102796.25
2019-03-21T01:50:48.734Z,102790.70
2019-03-21T01:53:56.157Z,102795.40
2019-03-21T01:57:04.004Z,102786.84
2019-03-21T02:00:24.192Z,102786.40
2019-03-21T02:03:31.868Z,102787.74
2019-03-21T02:06:39.876Z,102789.88
2019-03-21T02:09:56.825Z,102792.80
2019-03-21T02:13:04.708Z,102793.30
2019-03-21T02:16:12.466Z,102784.34
2019-03-21T02:19:30.141Z,102776.55
2019-03-21T02:22:38.006Z,102779.70
2019-03-21T02:25:55.233Z,102770.69
2019-03-21T02:29:03.009Z,102780.02
2019-03-21T02:32:10.870Z,102785.75
2019-03-21T02:35:30.952Z,102778.30
2019-03-21T02:38:37.799Z,102777.03
2019-03-21T02:41:45.654Z,102778.85
2019-03-21T02:45:07.828Z,102783.55
2019-03-21T02:48:02.925Z,102774.57
2019-03-21T02:51:19.930Z,102774.02
2019-03-21T02:54:36.863Z,102779.98
2019-03-21T02:57:44.619Z,102777.47
2019-03-21T03:00:52.374Z,102783.92
2019-03-21T03:04:09.643Z,102779.62
2019-03-21T03:07:17.337Z,102783.58
2019-03-21T03:10:34.437Z,102771.58
2019-03-21T03:13:43.199Z,102770.35
2019-03-21T03:16:50.972Z,102774.08
2019-03-21T03:20:09.636Z,102774.03
2019-03-21T03:23:17.844Z,102770.66
2019-03-21T03:26:25.728Z,102769.03
2019-03-21T03:29:33.692Z,102762.24
2019-03-21T03:32:41.521Z,102761.45
2019-03-21T03:35:58.395Z,102756.76
2019-03-21T03:39:08.242Z,102759.64
2019-03-21T03:42:16.061Z,102760.13
2019-03-21T03:45:36.620Z,102760.91
2019-03-21T03:48:44.640Z,102765.12
2019-03-21T03:51:52.485Z,102773.66
2019-03-21T03:55:00.541Z,102762.97
2019-03-21T03:58:18.616Z,102756.91
2019-03-21T04:01:26.453Z,102755.67
2019-03-21T04:04:34.228Z,102761.69
2019-03-21T04:07:42.256Z,102755.75
2019-03-21T04:10:59.147Z,102749.73
2019-03-21T04:14:06.919Z,102751.78
2019-03-21T04:17:14.765Z,102754.02
2019-03-21T04:20:33.018Z,102752.65
2019-03-21T04:23:50.235Z,102760.75
2019-03-21T04:26:58.430Z,102763.41
2019-03-21T04:30:08.248Z,102764.63
2019-03-21T04:33:16.065Z,102754.93
2019-03-21T04:36:24.050Z,102757.39
2019-03-21T04:39:31.939Z,102758.65
2019-03-21T04:42:39.746Z,102767.66
2019-03-21T04:46:03.404Z,102744.50
2019-03-21T04:49:06.227Z,102759.93
2019-03-21T04:52:13.962Z,102759.48
2019-03-21T04:55:31.072Z,102758.60
2019-03-21T04:58:38.924Z,102765.87
2019-03-21T05:01:48.115Z,102764.28
2019-03-21T05:05:06.385Z,102752.19
2019-03-21T05:08:14.245Z,102760.30
2019-03-21T05:11:22.021Z,102761.27
2019-03-21T05:14:29.777Z,102760.42
2019-03-21T05:17:47.963Z,102751.75
2019-03-21T05:20:55.840Z,102750.06
2019-03-21T05:24:03.718Z,102746.66
2019-03-21T05:27:11.573Z,102752.67
2019-03-21T05:30:35.050Z,102747.56
2019-03-21T05:33:42.871Z,102751.33
2019-03-21T05:36:50.494Z,102753.89
2019-03-21T05:39:58.199Z,102753.06
2019-03-21T05:43:09.332Z,102759.00
2019-03-21T05:46:26.075Z,102756.41
2019-03-21T05:49:27.025Z,102759.89
2019-03-21T05:52:34.853Z,102758.14
2019-03-21T05:55:52.114Z,102760.67
2019-03-21T05:58:59.865Z,102755.17
2019-03-21T06:02:07.649Z,102754.77
2019-03-21T06:05:25.110Z,102754.67
2019-03-21T06:08:35.089Z,102755.63
2019-03-21T06:11:44.952Z,102759.39
2019-03-21T06:14:56.433Z,102759.00
2019-03-21T06:18:39.772Z,102753.50
2019-03-21T06:22:27.965Z,102758.50
2019-03-21T06:26:25.430Z,102762.41
2019-03-21T06:29:42.600Z,102763.19
2019-03-21T06:32:50.458Z,102780.38
2019-03-21T06:35:58.211Z,102773.58
2019-03-21T06:39:15.457Z,102771.33
2019-03-21T06:42:23.308Z,102779.20
2019-03-21T06:45:31.056Z,102785.95
2019-03-21T06:48:52.050Z,102785.98
2019-03-21T06:51:59.868Z,102792.48
2019-03-21T06:55:07.613Z,102792.36
2019-03-21T06:58:24.881Z,102786.26
2019-03-21T07:01:32.728Z,102787.55
2019-03-21T07:04:40.582Z,102795.67
2019-03-21T07:07:57.566Z,102797.77
2019-03-21T07:11:05.842Z,102809.38
2019-03-21T07:14:13.594Z,102801.58
2019-03-21T07:20:32.098Z,102803.77
2019-03-21T07:23:40.189Z,102811.86
2019-03-21T07:26:48.111Z,102800.70
2019-03-21T07:29:55.856Z,102807.58
2019-03-21T07:33:03.628Z,102804.60
2019-03-21T07:36:20.754Z,102805.52
2019-03-21T07:39:28.786Z,102810.52
2019-03-21T07:42:36.680Z,102802.86
2019-03-21T07:45:53.530Z,102804.11
2019-03-21T07:49:01.216Z,102805.91
2019-03-21T07:52:09.042Z,102804.23
2019-03-21T07:55:16.784Z,102801.11
2019-03-21T07:58:24.575Z,102810.09
2019-03-21T08:01:32.414Z,102806.19
2019-03-21T08:04:49.599Z,102811.73
2019-03-21T08:07:57.470Z,102824.25
2019-03-21T08:11:05.397Z,102826.78
2019-03-21T08:14:13.272Z,102837.45
2019-03-21T08:17:21.097Z,102839.17
2019-03-21T08:20:38.300Z,102831.39
2019-03-21T08:23:46.151Z,102837.98
2019-03-21T08:26:54.008Z,102837.05
2019-03-21T08:30:25.559Z,102835.39
2019-03-21T08:33:33.307Z,102843.84
2019-03-21T08:36:41.226Z,102849.84
2019-03-21T08:39:58.341Z,102844.30
2019-03-21T08:43:06.160Z,102851.55
2019-03-21T08:46:14.039Z,102848.50
2019-03-21T08:49:31.042Z,102850.69
2019-03-21T08:52:38.736Z,102861.83
2019-03-21T08:55:46.498Z,102867.78
2019-03-21T08:59:03.915Z,102862.28
2019-03-21T09:02:11.833Z,102879.38
2019-03-21T09:05:19.680Z,102884.20
2019-03-21T09:08:36.595Z,102880.31
2019-03-21T09:11:44.730Z,102886.77
2019-03-21T09:14:52.390Z,102890.59
2019-03-21T09:18:09.298Z,102891.09
2019-03-21T09:21:26.293Z,102897.52
2019-03-21T09:24:34.216Z,102905.17
2019-03-21T09:27:40.930Z,102902.67
2019-03-21T09:30:50.607Z,102899.73
2019-03-21T09:33:58.032Z,102906.65
2019-03-21T09:37:06.117Z,102906.66
2019-03-21T09:40:14.036Z,102906.70
2019-03-21T09:43:31.237Z,102902.41
2019-03-21T09:46:50.166Z,102900.33
2019-03-21T09:49:48.500Z,102902.13
2019-03-21T09:53:05.402Z,102908.03
2019-03-21T09:56:13.244Z,102907.19
2019-03-21T09:59:19.940Z,102915.31
2019-03-21T10:02:27.513Z,102902.91
2019-03-21T10:05:35.600Z,102905.52
2019-03-21T10:08:43.549Z,102902.03
2019-03-21T10:11:52.486Z,102908.93
2019-03-21T10:15:00.371Z,102906.81
2019-03-21T10:18:17.273Z,102906.77
2019-03-21T10:21:25.112Z,102902.97
2019-03-21T10:24:32.778Z,102903.75
2019-03-21T10:27:50.060Z,102895.20
2019-03-21T10:30:57.796Z,102913.14
2019-03-21T10:34:05.851Z,102901.22
2019-03-21T10:37:22.873Z,102902.03
2019-03-21T10:40:30.701Z,102899.05
2019-03-21T10:43:38.541Z,102906.25
2019-03-21T10:46:55.674Z,102899.84
2019-03-21T10:50:03.623Z,102899.48
2019-03-21T10:53:11.456Z,102902.91
2019-03-21T10:56:28.452Z,102904.86
2019-03-21T10:59:36.212Z,102910.44
2019-03-21T11:02:44.170Z,102904.04
2019-03-21T11:06:01.307Z,102898.88
2019-03-21T11:09:09.927Z,102896.81
2019-03-21T11:12:26.802Z,102890.70
2019-03-21T11:15:34.774Z,102887.69
2019-03-21T11:18:42.593Z,102891.02
2019-03-21T11:22:06.367Z,102890.05
2019-03-21T11:25:09.308Z,102890.55
2019-03-21T11:28:17.843Z,102891.77
2019-03-21T11:31:25.873Z,102892.58
2019-03-21T11:34:33.637Z,102889.18
2019-03-21T11:37:41.522Z,102880.19
2019-03-21T11:41:04.840Z,102875.32
2019-03-21T11:44:12.609Z,102873.17
2019-03-21T11:47:20.464Z,102873.04
2019-03-21T11:50:37.571Z,102869.61
2019-03-21T11:53:45.591Z,102867.91
2019-03-21T11:56:53.401Z,102867.52
2019-03-21T12:00:10.756Z,102854.02
2019-03-21T12:03:18.510Z,102855.93
2019-03-21T12:06:26.367Z,102855.42
2019-03-21T12:09:43.203Z,102841.66
2019-03-21T12:12:51.047Z,102838.16
2019-03-21T12:15:58.934Z,102837.23
2019-03-21T12:19:15.998Z,102845.62
2019-03-21T12:22:30.085Z,102844.25
2019-03-21T12:25:33.282Z,102831.55
2019-03-21T12:28:50.367Z,102829.66
2019-03-21T12:31:58.260Z,102834.05
2019-03-21T12:35:07.089Z,102838.80
2019-03-21T12:38:14.844Z,102837.30
2019-03-21T12:41:31.918Z,102824.69
2019-03-21T12:44:39.845Z,102831.03
2019-03-21T12:47:47.526Z,102839.59
2019-03-21T12:51:04.724Z,102828.69
2019-03-21T12:54:12.650Z,102832.19
2019-03-21T12:57:20.464Z,102826.52
2019-03-21T13:00:42.194Z,102820.59
2019-03-21T13:04:05.219Z,102821.60
2019-03-21T13:07:13.629Z,102821.48
2019-03-21T13:10:30.747Z,102804.62
2019-03-21T13:13:38.670Z,102814.68
2019-03-21T13:16:46.529Z,102814.80
2019-03-21T13:20:04.022Z,102804.38
2019-03-21T13:23:11.853Z,102809.50
2019-03-21T13:26:29.044Z,102802.41
2019-03-21T13:29:36.797Z,102810.81
2019-03-21T13:32:46.960Z,102797.45
2019-03-21T13:36:03.449Z,102799.67
2019-03-21T13:39:11.221Z,102801.53
2019-03-21T13:42:19.068Z,102802.47
2019-03-21T13:45:36.315Z,102800.58
2019-03-21T13:48:43.988Z,102806.42
2019-03-21T13:51:51.660Z,102804.88
2019-03-21T13:54:59.508Z,102803.09
2019-03-21T13:58:07.357Z,102801.28
2019-03-21T14:01:15.306Z,102809.34
2019-03-21T14:04:23.077Z,102800.80
2019-03-21T14:07:30.869Z,102802.47
2019-03-21T14:10:48.193Z,102791.23
2019-03-21T14:13:56.096Z,102788.25
2019-03-21T14:17:03.997Z,102787.14
2019-03-21T14:20:21.031Z,102781.58
2019-03-21T14:23:28.813Z,102777.18
2019-03-21T14:26:46.631Z,102779.55
2019-03-21T14:30:01.368Z,102786.59
2019-03-21T14:33:04.187Z,102788.90
2019-03-21T14:36:12.030Z,102787.50
2019-03-21T14:39:19.893Z,102786.84
2019-03-21T14:42:37.065Z,102779.59
2019-03-21T14:45:44.916Z,102789.61
2019-03-21T14:48:52.660Z,102785.58
2019-03-21T14:52:09.797Z,102780.88
2019-03-21T14:55:17.789Z,102789.34
2019-03-21T14:58:25.547Z,102796.72
2019-03-21T15:01:42.495Z,102794.15
2019-03-21T15:04:50.368Z,102793.37
2019-03-21T15:07:58.428Z,102793.05
2019-03-21T15:11:17.360Z,102796.06
2019-03-21T15:14:24.654Z,102800.37
2019-03-21T15:17:32.401Z,102796.85
2019-03-21T15:20:39.167Z,102789.61
2019-03-21T15:23:58.528Z,102795.66
2019-03-21T15:26:56.662Z,102801.18
2019-03-21T15:34:03.126Z,102796.23
2019-03-21T15:41:26.016Z,102785.53
2019-03-21T15:44:32.167Z,102785.28
2019-03-21T15:47:40.325Z,102791.92
2019-03-21T15:50:48.077Z,102801.30
2019-03-21T15:53:56.713Z,102795.75
2019-03-21T15:57:05.013Z,102798.70
2019-03-21T16:00:16.755Z,102801.39
2019-03-21T16:03:24.671Z,102797.88
2019-03-21T16:06:41.567Z,102785.74
2019-03-21T16:09:58.418Z,102789.23
2019-03-21T16:13:06.343Z,102796.30
2019-03-21T16:16:14.349Z,102791.03
2019-03-21T16:19:22.310Z,102791.41
2019-03-21T16:22:30.107Z,102795.36
2019-03-21T16:25:48.552Z,102793.96
2019-03-21T16:28:56.602Z,102790.72
2019-03-21T16:32:04.659Z,102797.64
2019-03-21T16:35:27.645Z,102784.55
2019-03-21T16:38:35.392Z,102784.47
2019-03-21T16:41:43.357Z,102780.69
2019-03-21T16:45:00.477Z,102779.30
2019-03-21T16:48:09.281Z,102787.56
2019-03-21T16:51:17.680Z,102787.09
2019-03-21T16:54:34.733Z,102784.91
2019-03-21T16:57:42.514Z,102787.20
2019-03-21T17:00:50.372Z,102791.03
2019-03-21T17:04:07.603Z,102792.45
2019-03-21T17:07:15.386Z,102804.54
2019-03-21T17:10:23.310Z,102790.62
2019-03-21T17:13:40.587Z,102793.48
2019-03-21T17:16:48.411Z,102797.91
2019-03-21T17:19:56.080Z,102807.62
2019-03-21T17:23:19.119Z,102805.03
2019-03-21T17:26:26.904Z,102807.39
2019-03-21T17:29:34.732Z,102814.07
2019-03-21T17:32:51.961Z,102794.86
2019-03-21T17:35:59.820Z,102800.06
2019-03-21T17:39:09.325Z,102801.38
2019-03-21T17:42:26.307Z,102802.71
2019-03-21T17:45:34.051Z,102803.61
2019-03-21T17:48:41.772Z,102800.63
2019-03-21T17:51:49.492Z,102801.50
2019-03-21T17:54:57.216Z,102798.89
2019-03-21T17:58:05.310Z,102795.93
2019-03-21T18:01:22.343Z,102799.01
2019-03-21T18:04:30.094Z,102800.47
2019-03-21T18:07:36.329Z,102810.67
2019-03-21T18:10:53.358Z,102806.03
2019-03-21T18:14:10.181Z,102806.34
2019-03-21T18:17:17.968Z,102819.67
2019-03-21T18:20:25.814Z,102813.31
2019-03-21T18:23:43.022Z,102812.42
2019-03-21T18:26:50.802Z,102809.91
2019-03-21T18:29:58.646Z,102818.31
2019-03-21T18:33:15.827Z,102807.14
2019-03-21T18:36:23.684Z,102813.73
2019-03-21T18:39:31.438Z,102817.92
2019-03-21T18:42:48.668Z,102820.17
2019-03-21T18:45:56.516Z,102827.13
2019-03-21T18:49:04.194Z,102820.62
2019-03-21T18:52:21.304Z,102824.56
2019-03-21T18:55:29.153Z,102821.58
2019-03-21T18:58:37.006Z,102823.30
2019-03-21T19:01:58.677Z,102825.44
2019-03-21T19:05:04.689Z,102829.84
2019-03-21T19:08:12.542Z,102823.84
2019-03-21T19:11:20.342Z,102829.40
2019-03-21T19:14:28.251Z,102834.89
2019-03-21T19:17:35.947Z,102824.95
2019-03-21T19:20:43.693Z,102837.95
2019-03-21T19:24:00.492Z,102840.89
2019-03-21T19:27:17.346Z,102834.11
2019-03-21T19:30:25.032Z,102836.39
2019-03-21T19:33:32.840Z,102836.00
2019-03-21T19:36:50.114Z,102834.04
2019-03-21T19:39:57.929Z,102846.09
2019-03-21T19:43:05.856Z,102855.45
2019-03-21T19:46:22.989Z,102854.52
2019-03-21T19:49:31.320Z,102855.56
2019-03-21T19:52:48.764Z,102855.55
2019-03-21T19:56:07.788Z,102855.98
2019-03-21T19:59:06.111Z,102866.23
2019-03-21T20:02:13.969Z,102862.81
2019-03-21T20:05:21.723Z,102876.84
2019-03-21T20:08:38.900Z,102870.42
2019-03-21T20:11:47.099Z,102872.23
2019-03-21T20:14:54.904Z,102875.70
2019-03-21T20:18:02.807Z,102879.90
2019-03-21T20:21:10.507Z,102887.61
2019-03-21T20:24:27.726Z,102881.59
2019-03-21T20:27:35.464Z,102885.94
2019-03-21T20:30:43.280Z,102891.17
2019-03-21T20:34:00.510Z,102888.19
2019-03-21T20:37:08.439Z,102901.37
2019-03-21T20:40:16.557Z,102901.83
2019-03-21T20:43:24.346Z,102900.09
2019-03-21T20:46:32.405Z,102891.55
2019-03-21T20:49:49.218Z,102888.91
2019-03-21T20:52:56.968Z,102890.67
2019-03-21T20:56:04.987Z,102894.16
2019-03-21T20:59:13.760Z,102899.38
2019-03-21T21:02:30.743Z,102902.28
2019-03-21T21:05:47.672Z,102911.77
2019-03-21T21:08:55.426Z,102918.18
2019-03-21T21:12:03.219Z,102920.42
2019-03-21T21:15:20.432Z,102916.91
2019-03-21T21:18:28.304Z,102925.55
2019-03-21T21:21:36.002Z,102918.27
2019-03-21T21:24:53.443Z,102916.58
2019-03-21T21:28:01.188Z,102924.80
2019-03-21T21:31:09.048Z,102922.67
2019-03-21T21:34:25.928Z,102914.95
2019-03-21T21:37:33.601Z,102912.42
2019-03-21T21:40:41.552Z,102909.41
2019-03-21T21:43:58.702Z,102898.77
2019-03-21T21:47:06.530Z,102903.49
2019-03-21T21:50:14.633Z,102895.81
2019-03-21T21:53:31.464Z,102894.93
2019-03-21T21:56:39.255Z,102895.40
2019-03-21T21:59:47.192Z,102895.88
2019-03-21T22:03:04.421Z,102890.30
2019-03-21T22:06:12.288Z,102895.48
2019-03-21T22:09:20.025Z,102891.60
2019-03-21T22:12:37.130Z,102880.84
2019-03-21T22:15:45.089Z,102889.41
2019-03-21T22:18:52.838Z,102897.18
2019-03-21T22:22:09.905Z,102897.18
2019-03-21T22:25:16.145Z,102902.32
2019-03-21T22:28:23.893Z,102906.95
2019-03-21T22:31:40.999Z,102906.88
2019-03-21T22:34:48.833Z,102904.37
2019-03-21T22:37:56.593Z,102905.63
2019-03-21T22:41:13.864Z,102907.77
2019-03-21T22:44:22.064Z,102918.47
2019-03-21T22:47:39.461Z,102919.31
2019-03-21T22:50:45.621Z,102918.03
2019-03-21T22:53:53.733Z,102919.34
2019-03-21T22:57:01.748Z,102915.47
2019-03-21T23:00:12.433Z,102910.84
2019-03-21T23:03:20.187Z,102907.87
2019-03-21T23:06:27.979Z,102905.37
2019-03-21T23:09:35.814Z,102914.28
2019-03-21T23:12:53.061Z,102914.28
2019-03-21T23:16:00.825Z,102914.70
2019-03-21T23:19:08.715Z,102910.84
2019-03-21T23:22:25.754Z,102906.51
2019-03-21T23:25:33.510Z,102902.77
2019-03-21T23:28:41.183Z,102901.94
2019-03-21T23:31:47.520Z,102890.43
2019-03-21T23:34:55.286Z,102882.37
2019-03-21T23:38:03.095Z,102874.70
2019-03-21T23:41:20.122Z,102869.04
2019-03-21T23:44:27.866Z,102869.92
2019-03-21T23:47:35.778Z,102862.64
2019-03-21T23:50:53.122Z,102860.98
2019-03-21T23:54:00.875Z,102864.86
2019-03-21T23:57:08.741Z,102861.47
